AirNav   Air Wisconsin Up To $57,000 Bonus
 
 1338 users online  

41NH Upper Connecticut Vally Hospital Heliport
Colebrook, New Hampshire, USA

GOING TO COLEBROOK?


FAA INFORMATION EFFECTIVE 30 JANUARY 2020

Location

FAA Identifier: 41NH
Lat/Long: 44-54-13.8600N 071-28-52.0500W
44-54.231000N 071-28.867500W
44.9038500,-71.4811250
(estimated)
Elevation: 1101 ft. / 336 m (estimated)
From city: 1 mile ENE of COLEBROOK, NH
Time zone: UTC -5 (UTC -4 during Daylight Saving Time)
Zip code: 03576

Heliport Operations

Heliport use: Private use. Permission required prior to landing
Activation date: 01/2017
Control tower: no
ARTCC: BOSTON CENTER
FSS: BANGOR FLIGHT SERVICE STATION
Attendance: 
Wind indicator: no
Segmented circle: no

Nearby radio navigation aids

VOR radial/distance  VOR name  Freq  Var
BMLr339/20.5BERLIN VOR/DME110.4017W
YSCr169/28.0SHERBROOKE VOR/DME113.2017W

 
NDB name  Hdg/Dist  Freq  Var  ID
RANGELEY285/31.122118WRQM .-. --.- --
MAHN032/33.638617WGMA --. -- .-

Heliport Services

Runway Information

Helipad H1

Dimensions: 60 x 60 ft. / 18 x 18 m
Surface: asphalt, in fair condition
Latitude: 44-54.231000N
Longitude: 071-28.867500W
Elevation: 1101.0 ft.
Traffic pattern: leftleft

Heliport Ownership and Management from official FAA records

Ownership: Privately-owned
Owner: UPPER CONNECTICUT VALLEY HOSPITAL
181 CORLISS LANE
COLEBROOK, NH 03576
Phone 603-388-4240
Manager: JEFFREY D LACOY SR
181 CORLISS LANE
COLEBROOK, NH 03576
Phone 603-388-4240

Additional Remarks

FOR CD CTC BOSTON ARTCC AT 603-879-6859.

Instrument Procedures

There are no published instrument procedures at 41NH.

Some nearby airports with instrument procedures:

KBML - Berlin Regional Airport (24 nm SE)
KCDA - Caledonia County Airport (30 nm SW)
KEFK - Northeast Kingdom International Airport (32 nm W)
KHIE - Mount Washington Regional Airport (32 nm S)
M57 - Rangeley Lake Seaplane Base (35 nm E)
 
Loc | Ops | Rwys | IFR | FBO | Links
Com | Nav | Svcs | Stats | Notes
Aerial photo
No photo
 
Airport distance calculator
Flying to Upper Connecticut Vally Hospital Heliport? Find the distance to fly.

From to 41NH

Sunrise and sunset
Times for 17-Feb-2020
 Local
(UTC-5)
 Zulu
(UTC)
Morning civil twilight06:1511:15
Sunrise06:4511:45
Sunset17:1522:15
Evening civil twilight17:4522:45

Current date and time
Zulu (UTC)  17-Feb-2020 17:45:50
Local (UTC-5)  17-Feb-2020 12:45:50
 
METAR
KBML 
23nm SE 
171652Z AUTO 29007G16KT 230V330 10SM BKN037 M04/M13 A3017 RMK AO2 SLP236 T10391128
CWQH 
28nm N 
171700Z AUTO 31008KT M08/M15 RMK AO1 SOG 41 1018 SLP260 T10781146
KCDA 
30nm SW 
171735Z AUTO 25006KT 10SM OVC033 M05/M12 A3024 RMK AO2 T10531121
KEFK 
31nm W 
171737Z AUTO 31009KT 10SM CLR M06/M15 A3026 RMK AO2 T10621150
KHIE 
32nm S 
171652Z AUTO 32008KT 10SM OVC036 M04/M12 A3019 RMK AO2 SLP243 T10441122
CYSC 
33nm N 
171728Z AUTO 29010G16KT 240V340 9SM -SN FEW028 SCT240 M08/M15 A3025 RMK SLP260
K8B0 
33nm E 
171735Z AUTO 33014G22KT 7SM BKN030 M07/M12 A3012 RMK AO2
CWTT 
36nm NW 
171700Z AUTO 28012KT M08/M15 RMK AO1 T10801154
K1V4 
37nm SW 
171654Z AUTO M04/M12 A3023 RMK AO1 SLP252 T10391117
KMWN 
39nm S 
171651Z 29041KT 1/8SM FZFG BKN000 M16/M18 RMK FZFG BKN000 FZFG INTMT
TAF
KHIE 
32nm S 
171132Z 1712/1812 28004KT P6SM VCSH SCT015 SCT030 FM171600 29008KT P6SM FEW035 FM172300 00000KT P6SM SKC
CYSC 
33nm N 
171039Z 1711/1723 30010KT 5SM -SN BKN020 TEMPO 1711/1714 P6SM NSW BKN030 FM171400 30010KT P6SM BKN030 TEMPO 1714/1720 BKN020 FM172000 29010KT P6SM FEW030 BECMG 1722/1723 VRB03KT RMK FCST BASED ON AUTO OBS. NXT FCST BY 171800Z
NOTAMs
Click for the latest NOTAMs
NOTAMs are issued by the DoD/FAA and will open in a separate window not controlled by AirNav.

 

 
 

Would you like to see your business listed on this page?

 If your business provides an interesting product or service to pilots, flight crews, aircraft, or users of the Upper Connecticut Vally Hospital Heliport, you should consider listing it here.  To start the listing process, click on the button below
 
Add a business
 

Other Pages about Upper Connecticut Vally Hospital Heliport

Update a link
 
Copyright © AirNav, LLC. All rights reserved. Privacy Policy  Contact